sensor_id;sensor_type;location;lat;lon;timestamp;P1;durP1;ratioP1;P2;durP2;ratioP2
67363;SDS011;54250;45.572;38.086;2022-09-02T00:01:52;8.18;;;2.95;;
67363;SDS011;54250;45.572;38.086;2022-09-02T00:04:19;7.13;;;2.50;;
67363;SDS011;54250;45.572;38.086;2022-09-02T00:06:48;11.20;;;3.08;;
67363;SDS011;54250;45.572;38.086;2022-09-02T00:09:17;4.25;;;2.72;;
67363;SDS011;54250;45.572;38.086;2022-09-02T00:11:46;5.63;;;2.80;;
67363;SDS011;54250;45.572;38.086;2022-09-02T00:14:15;4.38;;;2.45;;
67363;SDS011;54250;45.572;38.086;2022-09-02T00:16:45;3.47;;;2.13;;
67363;SDS011;54250;45.572;38.086;2022-09-02T00:19:19;5.45;;;2.67;;
67363;SDS011;54250;45.572;38.086;2022-09-02T00:21:49;7.55;;;2.60;;
67363;SDS011;54250;45.572;38.086;2022-09-02T00:24:16;8.15;;;2.70;;
67363;SDS011;54250;45.572;38.086;2022-09-02T00:26:43;3.25;;;2.17;;
67363;SDS011;54250;45.572;38.086;2022-09-02T00:29:09;3.35;;;2.47;;
67363;SDS011;54250;45.572;38.086;2022-09-02T00:31:37;8.60;;;2.88;;
67363;SDS011;54250;45.572;38.086;2022-09-02T00:34:04;12.02;;;2.70;;
67363;SDS011;54250;45.572;38.086;2022-09-02T00:36:31;6.50;;;2.97;;
67363;SDS011;54250;45.572;38.086;2022-09-02T00:38:58;4.40;;;2.70;;
67363;SDS011;54250;45.572;38.086;2022-09-02T00:41:25;7.22;;;2.88;;
67363;SDS011;54250;45.572;38.086;2022-09-02T00:43:53;5.47;;;2.75;;
67363;SDS011;54250;45.572;38.086;2022-09-02T00:46:26;6.05;;;2.90;;
67363;SDS011;54250;45.572;38.086;2022-09-02T00:48:59;4.97;;;3.50;;
67363;SDS011;54250;45.572;38.086;2022-09-02T00:51:45;7.43;;;3.00;;
67363;SDS011;54250;45.572;38.086;2022-09-02T00:54:43;4.85;;;2.90;;
67363;SDS011;54250;45.572;38.086;2022-09-02T00:57:16;5.03;;;3.10;;
67363;SDS011;54250;45.572;38.086;2022-09-02T01:00:06;4.53;;;3.38;;
67363;SDS011;54250;45.572;38.086;2022-09-02T01:02:39;15.38;;;3.72;;
67363;SDS011;54250;45.572;38.086;2022-09-02T01:05:07;8.90;;;3.40;;
67363;SDS011;54250;45.572;38.086;2022-09-02T01:07:35;7.28;;;3.42;;
67363;SDS011;54250;45.572;38.086;2022-09-02T01:10:04;8.20;;;3.97;;
67363;SDS011;54250;45.572;38.086;2022-09-02T01:12:32;10.55;;;3.88;;
67363;SDS011;54250;45.572;38.086;2022-09-02T01:15:00;4.72;;;3.70;;
67363;SDS011;54250;45.572;38.086;2022-09-02T01:17:28;9.30;;;3.90;;
67363;SDS011;54250;45.572;38.086;2022-09-02T01:19:56;8.95;;;4.30;;
67363;SDS011;54250;45.572;38.086;2022-09-02T01:22:27;6.60;;;4.03;;
67363;SDS011;54250;45.572;38.086;2022-09-02T01:24:56;5.35;;;3.72;;
67363;SDS011;54250;45.572;38.086;2022-09-02T01:27:26;8.30;;;3.58;;
67363;SDS011;54250;45.572;38.086;2022-09-02T01:29:55;7.43;;;3.95;;
67363;SDS011;54250;45.572;38.086;2022-09-02T01:32:23;4.95;;;3.35;;
67363;SDS011;54250;45.572;38.086;2022-09-02T01:34:50;5.43;;;3.53;;
67363;SDS011;54250;45.572;38.086;2022-09-02T01:37:16;5.35;;;3.60;;
67363;SDS011;54250;45.572;38.086;2022-09-02T01:39:43;7.05;;;4.28;;
67363;SDS011;54250;45.572;38.086;2022-09-02T01:42:11;12.98;;;4.07;;
67363;SDS011;54250;45.572;38.086;2022-09-02T01:44:40;6.13;;;3.53;;
67363;SDS011;54250;45.572;38.086;2022-09-02T01:47:11;9.18;;;3.58;;
67363;SDS011;54250;45.572;38.086;2022-09-02T01:52:11;9.18;;;4.00;;
67363;SDS011;54250;45.572;38.086;2022-09-02T01:54:38;9.90;;;3.65;;
67363;SDS011;54250;45.572;38.086;2022-09-02T01:57:06;9.88;;;3.83;;
67363;SDS011;54250;45.572;38.086;2022-09-02T01:59:32;4.97;;;3.78;;
67363;SDS011;54250;45.572;38.086;2022-09-02T02:01:58;5.57;;;4.05;;
67363;SDS011;54250;45.572;38.086;2022-09-02T02:04:24;8.15;;;3.83;;
67363;SDS011;54250;45.572;38.086;2022-09-02T02:06:54;11.63;;;4.10;;
67363;SDS011;54250;45.572;38.086;2022-09-02T02:09:20;6.78;;;3.67;;
67363;SDS011;54250;45.572;38.086;2022-09-02T02:11:46;6.60;;;3.83;;
67363;SDS011;54250;45.572;38.086;2022-09-02T02:14:14;6.00;;;3.92;;
67363;SDS011;54250;45.572;38.086;2022-09-02T02:16:46;9.20;;;3.90;;
67363;SDS011;54250;45.572;38.086;2022-09-02T02:19:12;7.38;;;3.63;;
67363;SDS011;54250;45.572;38.086;2022-09-02T02:21:39;9.93;;;3.50;;
67363;SDS011;54250;45.572;38.086;2022-09-02T02:24:06;10.63;;;3.40;;
67363;SDS011;54250;45.572;38.086;2022-09-02T02:26:33;6.30;;;3.53;;
67363;SDS011;54250;45.572;38.086;2022-09-02T02:29:03;7.07;;;3.45;;
67363;SDS011;54250;45.572;38.086;2022-09-02T02:31:30;6.63;;;2.67;;
67363;SDS011;54250;45.572;38.086;2022-09-02T02:33:57;6.70;;;3.30;;
67363;SDS011;54250;45.572;38.086;2022-09-02T02:36:24;5.00;;;2.75;;
67363;SDS011;54250;45.572;38.086;2022-09-02T02:38:50;8.00;;;3.30;;
67363;SDS011;54250;45.572;38.086;2022-09-02T02:41:16;6.15;;;3.00;;
67363;SDS011;54250;45.572;38.086;2022-09-02T02:43:43;6.20;;;3.03;;
67363;SDS011;54250;45.572;38.086;2022-09-02T02:46:10;3.65;;;2.58;;
67363;SDS011;54250;45.572;38.086;2022-09-02T02:48:37;3.22;;;2.55;;
67363;SDS011;54250;45.572;38.086;2022-09-02T02:51:04;5.32;;;2.85;;
67363;SDS011;54250;45.572;38.086;2022-09-02T02:53:32;6.88;;;2.90;;
67363;SDS011;54250;45.572;38.086;2022-09-02T02:56:00;7.80;;;3.30;;
67363;SDS011;54250;45.572;38.086;2022-09-02T02:58:27;6.47;;;2.67;;
67363;SDS011;54250;45.572;38.086;2022-09-02T03:00:55;6.18;;;2.60;;
67363;SDS011;54250;45.572;38.086;2022-09-02T03:03:22;7.53;;;3.40;;
67363;SDS011;54250;45.572;38.086;2022-09-02T03:05:52;6.95;;;2.60;;
67363;SDS011;54250;45.572;38.086;2022-09-02T03:08:19;7.63;;;2.75;;
67363;SDS011;54250;45.572;38.086;2022-09-02T03:10:48;3.38;;;2.45;;
67363;SDS011;54250;45.572;38.086;2022-09-02T03:13:20;4.07;;;2.63;;
67363;SDS011;54250;45.572;38.086;2022-09-02T03:15:48;3.53;;;2.42;;
67363;SDS011;54250;45.572;38.086;2022-09-02T03:18:15;8.35;;;2.53;;
67363;SDS011;54250;45.572;38.086;2022-09-02T03:20:42;3.22;;;2.45;;
67363;SDS011;54250;45.572;38.086;2022-09-02T03:23:09;4.28;;;2.40;;
67363;SDS011;54250;45.572;38.086;2022-09-02T03:25:43;6.22;;;2.67;;
67363;SDS011;54250;45.572;38.086;2022-09-02T03:28:25;4.40;;;2.30;;
67363;SDS011;54250;45.572;38.086;2022-09-02T03:30:52;4.10;;;2.65;;
67363;SDS011;54250;45.572;38.086;2022-09-02T03:33:18;5.75;;;1.70;;
67363;SDS011;54250;45.572;38.086;2022-09-02T03:35:45;3.13;;;1.98;;
67363;SDS011;54250;45.572;38.086;2022-09-02T03:38:11;2.90;;;2.05;;
67363;SDS011;54250;45.572;38.086;2022-09-02T03:40:38;4.25;;;2.00;;
67363;SDS011;54250;45.572;38.086;2022-09-02T03:43:04;2.22;;;1.70;;
67363;SDS011;54250;45.572;38.086;2022-09-02T03:45:30;3.33;;;1.88;;
67363;SDS011;54250;45.572;38.086;2022-09-02T03:48:02;7.45;;;3.08;;
67363;SDS011;54250;45.572;38.086;2022-09-02T03:50:35;2.92;;;1.75;;
67363;SDS011;54250;45.572;38.086;2022-09-02T03:53:05;6.60;;;1.83;;
67363;SDS011;54250;45.572;38.086;2022-09-02T03:55:44;2.45;;;1.80;;
67363;SDS011;54250;45.572;38.086;2022-09-02T03:58:12;1.80;;;1.50;;
67363;SDS011;54250;45.572;38.086;2022-09-02T04:00:39;3.05;;;1.80;;
67363;SDS011;54250;45.572;38.086;2022-09-02T04:03:06;4.68;;;1.95;;
67363;SDS011;54250;45.572;38.086;2022-09-02T04:05:33;2.75;;;1.88;;
67363;SDS011;54250;45.572;38.086;2022-09-02T04:07:59;2.20;;;1.50;;
67363;SDS011;54250;45.572;38.086;2022-09-02T04:10:27;5.03;;;1.40;;
67363;SDS011;54250;45.572;38.086;2022-09-02T04:12:55;3.35;;;1.50;;
67363;SDS011;54250;45.572;38.086;2022-09-02T04:15:22;3.88;;;1.60;;
67363;SDS011;54250;45.572;38.086;2022-09-02T04:17:50;2.72;;;1.42;;
67363;SDS011;54250;45.572;38.086;2022-09-02T04:20:18;4.85;;;1.40;;
67363;SDS011;54250;45.572;38.086;2022-09-02T04:22:45;3.00;;;1.40;;
67363;SDS011;54250;45.572;38.086;2022-09-02T04:25:11;3.17;;;1.77;;
67363;SDS011;54250;45.572;38.086;2022-09-02T04:27:37;2.95;;;1.27;;
67363;SDS011;54250;45.572;38.086;2022-09-02T04:30:05;2.90;;;1.45;;
67363;SDS011;54250;45.572;38.086;2022-09-02T04:32:34;2.30;;;1.35;;
67363;SDS011;54250;45.572;38.086;2022-09-02T04:35:02;3.60;;;1.73;;
67363;SDS011;54250;45.572;38.086;2022-09-02T04:37:29;5.88;;;1.73;;
67363;SDS011;54250;45.572;38.086;2022-09-02T04:39:58;5.68;;;1.48;;
67363;SDS011;54250;45.572;38.086;2022-09-02T04:42:24;5.20;;;1.75;;
67363;SDS011;54250;45.572;38.086;2022-09-02T04:44:51;4.25;;;1.90;;
67363;SDS011;54250;45.572;38.086;2022-09-02T04:47:20;3.10;;;1.48;;
67363;SDS011;54250;45.572;38.086;2022-09-02T04:49:47;4.15;;;1.70;;
67363;SDS011;54250;45.572;38.086;2022-09-02T04:52:17;2.90;;;1.63;;
67363;SDS011;54250;45.572;38.086;2022-09-02T04:54:46;8.48;;;1.42;;
67363;SDS011;54250;45.572;38.086;2022-09-02T04:57:13;4.18;;;1.60;;
67363;SDS011;54250;45.572;38.086;2022-09-02T04:59:39;3.65;;;1.20;;
67363;SDS011;54250;45.572;38.086;2022-09-02T05:02:09;5.20;;;1.63;;
67363;SDS011;54250;45.572;38.086;2022-09-02T05:04:36;9.77;;;1.70;;
67363;SDS011;54250;45.572;38.086;2022-09-02T05:07:07;3.15;;;1.30;;
67363;SDS011;54250;45.572;38.086;2022-09-02T05:12:06;3.38;;;1.50;;
67363;SDS011;54250;45.572;38.086;2022-09-02T05:14:47;2.38;;;1.48;;
67363;SDS011;54250;45.572;38.086;2022-09-02T05:17:15;4.35;;;1.50;;
67363;SDS011;54250;45.572;38.086;2022-09-02T05:19:43;8.85;;;1.40;;
67363;SDS011;54250;45.572;38.086;2022-09-02T05:22:09;3.08;;;1.75;;
67363;SDS011;54250;45.572;38.086;2022-09-02T05:24:40;4.63;;;1.67;;
67363;SDS011;54250;45.572;38.086;2022-09-02T05:27:10;5.60;;;1.88;;
67363;SDS011;54250;45.572;38.086;2022-09-02T05:29:38;3.67;;;1.33;;
67363;SDS011;54250;45.572;38.086;2022-09-02T05:32:05;4.85;;;1.60;;
67363;SDS011;54250;45.572;38.086;2022-09-02T05:34:34;2.67;;;1.52;;
67363;SDS011;54250;45.572;38.086;2022-09-02T05:37:02;6.13;;;1.50;;
67363;SDS011;54250;45.572;38.086;2022-09-02T05:39:32;3.85;;;1.80;;
67363;SDS011;54250;45.572;38.086;2022-09-02T05:41:59;2.88;;;1.33;;
67363;SDS011;54250;45.572;38.086;2022-09-02T05:44:25;14.85;;;1.77;;
67363;SDS011;54250;45.572;38.086;2022-09-02T05:46:53;2.75;;;1.30;;
67363;SDS011;54250;45.572;38.086;2022-09-02T05:49:21;3.72;;;1.23;;
67363;SDS011;54250;45.572;38.086;2022-09-02T05:52:07;2.20;;;1.25;;
67363;SDS011;54250;45.572;38.086;2022-09-02T05:54:39;3.00;;;1.42;;
67363;SDS011;54250;45.572;38.086;2022-09-02T05:57:10;3.65;;;1.48;;
67363;SDS011;54250;45.572;38.086;2022-09-02T05:59:44;9.02;;;1.58;;
67363;SDS011;54250;45.572;38.086;2022-09-02T06:02:16;7.90;;;1.63;;
67363;SDS011;54250;45.572;38.086;2022-09-02T06:04:47;5.90;;;2.10;;
67363;SDS011;54250;45.572;38.086;2022-09-02T06:07:15;3.25;;;1.92;;
67363;SDS011;54250;45.572;38.086;2022-09-02T06:09:45;6.47;;;2.58;;
67363;SDS011;54250;45.572;38.086;2022-09-02T06:12:12;4.15;;;1.50;;
67363;SDS011;54250;45.572;38.086;2022-09-02T06:14:40;6.25;;;2.63;;
67363;SDS011;54250;45.572;38.086;2022-09-02T06:17:08;6.05;;;2.42;;
67363;SDS011;54250;45.572;38.086;2022-09-02T06:19:44;6.70;;;1.50;;
67363;SDS011;54250;45.572;38.086;2022-09-02T06:22:10;4.10;;;1.55;;
67363;SDS011;54250;45.572;38.086;2022-09-02T06:24:37;7.72;;;1.58;;
67363;SDS011;54250;45.572;38.086;2022-09-02T06:27:08;4.93;;;1.30;;
67363;SDS011;54250;45.572;38.086;2022-09-02T06:29:37;3.03;;;1.40;;
67363;SDS011;54250;45.572;38.086;2022-09-02T06:32:05;4.07;;;1.50;;
67363;SDS011;54250;45.572;38.086;2022-09-02T06:34:32;3.50;;;1.13;;
67363;SDS011;54250;45.572;38.086;2022-09-02T06:36:59;4.57;;;1.70;;
67363;SDS011;54250;45.572;38.086;2022-09-02T06:39:26;8.93;;;2.30;;
67363;SDS011;54250;45.572;38.086;2022-09-02T06:41:55;5.22;;;1.67;;
67363;SDS011;54250;45.572;38.086;2022-09-02T06:44:23;6.00;;;1.30;;
67363;SDS011;54250;45.572;38.086;2022-09-02T06:46:54;12.73;;;1.30;;
67363;SDS011;54250;45.572;38.086;2022-09-02T06:49:22;6.72;;;1.23;;
67363;SDS011;54250;45.572;38.086;2022-09-02T06:51:50;9.88;;;1.50;;
67363;SDS011;54250;45.572;38.086;2022-09-02T06:54:19;6.65;;;1.40;;
67363;SDS011;54250;45.572;38.086;2022-09-02T06:56:52;3.13;;;1.20;;
67363;SDS011;54250;45.572;38.086;2022-09-02T06:59:22;4.10;;;1.50;;
67363;SDS011;54250;45.572;38.086;2022-09-02T07:01:55;7.00;;;1.30;;
67363;SDS011;54250;45.572;38.086;2022-09-02T07:04:23;3.38;;;1.17;;
67363;SDS011;54250;45.572;38.086;2022-09-02T07:07:12;1.92;;;1.00;;
67363;SDS011;54250;45.572;38.086;2022-09-02T07:09:44;3.10;;;1.10;;
67363;SDS011;54250;45.572;38.086;2022-09-02T07:12:15;4.47;;;1.20;;
67363;SDS011;54250;45.572;38.086;2022-09-02T07:14:54;5.82;;;1.00;;
67363;SDS011;54250;45.572;38.086;2022-09-02T07:17:25;3.13;;;1.48;;
67363;SDS011;54250;45.572;38.086;2022-09-02T07:19:57;1.83;;;1.00;;
67363;SDS011;54250;45.572;38.086;2022-09-02T07:22:26;4.88;;;1.40;;
67363;SDS011;54250;45.572;38.086;2022-09-02T07:24:53;2.20;;;0.95;;
67363;SDS011;54250;45.572;38.086;2022-09-02T07:27:19;3.25;;;1.58;;
67363;SDS011;54250;45.572;38.086;2022-09-02T07:29:48;7.43;;;1.00;;
67363;SDS011;54250;45.572;38.086;2022-09-02T07:32:16;5.22;;;1.10;;
67363;SDS011;54250;45.572;38.086;2022-09-02T07:34:42;8.45;;;1.10;;
67363;SDS011;54250;45.572;38.086;2022-09-02T07:37:11;1.98;;;1.10;;
67363;SDS011;54250;45.572;38.086;2022-09-02T07:39:40;5.20;;;1.10;;
67363;SDS011;54250;45.572;38.086;2022-09-02T07:42:08;3.00;;;1.10;;
67363;SDS011;54250;45.572;38.086;2022-09-02T07:44:35;2.03;;;1.13;;
67363;SDS011;54250;45.572;38.086;2022-09-02T07:47:03;2.47;;;1.00;;
67363;SDS011;54250;45.572;38.086;2022-09-02T07:49:31;4.28;;;1.15;;
67363;SDS011;54250;45.572;38.086;2022-09-02T07:51:58;6.82;;;1.50;;
67363;SDS011;54250;45.572;38.086;2022-09-02T07:54:24;1.27;;;0.90;;
67363;SDS011;54250;45.572;38.086;2022-09-02T07:56:52;3.10;;;1.50;;
67363;SDS011;54250;45.572;38.086;2022-09-02T07:59:19;5.22;;;1.20;;
67363;SDS011;54250;45.572;38.086;2022-09-02T08:01:48;3.75;;;0.75;;
67363;SDS011;54250;45.572;38.086;2022-09-02T08:04:16;1.80;;;1.02;;
67363;SDS011;54250;45.572;38.086;2022-09-02T08:06:44;7.55;;;1.15;;
67363;SDS011;54250;45.572;38.086;2022-09-02T08:09:11;4.95;;;0.80;;
67363;SDS011;54250;45.572;38.086;2022-09-02T08:11:39;5.50;;;1.08;;
67363;SDS011;54250;45.572;38.086;2022-09-02T08:14:08;1.98;;;1.00;;
67363;SDS011;54250;45.572;38.086;2022-09-02T08:16:37;5.07;;;1.17;;
67363;SDS011;54250;45.572;38.086;2022-09-02T08:19:05;5.75;;;1.02;;
67363;SDS011;54250;45.572;38.086;2022-09-02T08:21:32;8.07;;;1.30;;
67363;SDS011;54250;45.572;38.086;2022-09-02T08:23:58;3.20;;;1.10;;
67363;SDS011;54250;45.572;38.086;2022-09-02T08:26:24;2.10;;;0.80;;
67363;SDS011;54250;45.572;38.086;2022-09-02T08:28:53;9.55;;;1.00;;
67363;SDS011;54250;45.572;38.086;2022-09-02T08:31:20;6.13;;;1.00;;
67363;SDS011;54250;45.572;38.086;2022-09-02T08:33:46;2.88;;;1.00;;
67363;SDS011;54250;45.572;38.086;2022-09-02T08:36:12;2.10;;;1.08;;
67363;SDS011;54250;45.572;38.086;2022-09-02T08:38:40;1.52;;;0.88;;
67363;SDS011;54250;45.572;38.086;2022-09-02T08:41:20;6.80;;;0.90;;
67363;SDS011;54250;45.572;38.086;2022-09-02T08:43:49;5.43;;;1.02;;
67363;SDS011;54250;45.572;38.086;2022-09-02T08:46:18;1.60;;;0.80;;
67363;SDS011;54250;45.572;38.086;2022-09-02T08:48:51;16.88;;;1.20;;
67363;SDS011;54250;45.572;38.086;2022-09-02T08:51:30;10.07;;;1.05;;
67363;SDS011;54250;45.572;38.086;2022-09-02T08:54:22;6.50;;;1.00;;
67363;SDS011;54250;45.572;38.086;2022-09-02T08:57:06;5.70;;;1.10;;
67363;SDS011;54250;45.572;38.086;2022-09-02T08:59:34;7.47;;;1.00;;
67363;SDS011;54250;45.572;38.086;2022-09-02T09:02:13;2.78;;;1.00;;
67363;SDS011;54250;45.572;38.086;2022-09-02T09:07:54;5.40;;;1.30;;
67363;SDS011;54250;45.572;38.086;2022-09-02T09:13:45;2.63;;;1.10;;
67363;SDS011;54250;45.572;38.086;2022-09-02T09:16:37;5.60;;;1.38;;
67363;SDS011;54250;45.572;38.086;2022-09-02T09:21:38;5.90;;;1.00;;
67363;SDS011;54250;45.572;38.086;2022-09-02T09:24:08;5.97;;;0.93;;
67363;SDS011;54250;45.572;38.086;2022-09-02T09:26:47;4.55;;;1.00;;
67363;SDS011;54250;45.572;38.086;2022-09-02T09:29:13;3.97;;;0.90;;
67363;SDS011;54250;45.572;38.086;2022-09-02T09:31:39;10.80;;;1.05;;
67363;SDS011;54250;45.572;38.086;2022-09-02T09:34:07;1.95;;;1.13;;
67363;SDS011;54250;45.572;38.086;2022-09-02T09:36:46;5.78;;;0.98;;
67363;SDS011;54250;45.572;38.086;2022-09-02T09:42:03;8.80;;;1.33;;
67363;SDS011;54250;45.572;38.086;2022-09-02T09:47:15;8.40;;;1.00;;
67363;SDS011;54250;45.572;38.086;2022-09-02T09:52:10;2.97;;;1.10;;
67363;SDS011;54250;45.572;38.086;2022-09-02T09:54:46;5.60;;;1.25;;
67363;SDS011;54250;45.572;38.086;2022-09-02T09:57:16;3.20;;;1.10;;
67363;SDS011;54250;45.572;38.086;2022-09-02T09:59:45;10.13;;;1.02;;
67363;SDS011;54250;45.572;38.086;2022-09-02T10:02:22;8.13;;;1.30;;
67363;SDS011;54250;45.572;38.086;2022-09-02T10:04:54;4.05;;;1.10;;
67363;SDS011;54250;45.572;38.086;2022-09-02T10:07:38;11.20;;;1.20;;
67363;SDS011;54250;45.572;38.086;2022-09-02T10:21:47;5.53;;;1.02;;
67363;SDS011;54250;45.572;38.086;2022-09-02T10:27:07;9.32;;;1.08;;
67363;SDS011;54250;45.572;38.086;2022-09-02T10:29:56;4.93;;;1.00;;
67363;SDS011;54250;45.572;38.086;2022-09-02T10:40:29;4.40;;;1.00;;
67363;SDS011;54250;45.572;38.086;2022-09-02T10:46:07;2.75;;;0.95;;
67363;SDS011;54250;45.572;38.086;2022-09-02T10:48:40;8.27;;;1.10;;
67363;SDS011;54250;45.572;38.086;2022-09-02T10:56:32;8.43;;;1.37;;
67363;SDS011;54250;45.572;38.086;2022-09-02T10:59:10;5.35;;;0.93;;
67363;SDS011;54250;45.572;38.086;2022-09-02T11:01:47;3.47;;;0.95;;
67363;SDS011;54250;45.572;38.086;2022-09-02T11:04:32;7.72;;;1.50;;
67363;SDS011;54250;45.572;38.086;2022-09-02T11:07:02;1.02;;;0.82;;
67363;SDS011;54250;45.572;38.086;2022-09-02T11:12:14;16.23;;;1.13;;
67363;SDS011;54250;45.572;38.086;2022-09-02T11:23:12;5.03;;;1.00;;
67363;SDS011;54250;45.572;38.086;2022-09-02T11:28:45;15.30;;;1.20;;
67363;SDS011;54250;45.572;38.086;2022-09-02T11:31:23;8.48;;;1.85;;
67363;SDS011;54250;45.572;38.086;2022-09-02T11:37:08;3.78;;;0.77;;
67363;SDS011;54250;45.572;38.086;2022-09-02T11:39:47;9.75;;;1.02;;
67363;SDS011;54250;45.572;38.086;2022-09-02T11:48:15;13.30;;;1.50;;
67363;SDS011;54250;45.572;38.086;2022-09-02T11:53:35;10.07;;;1.42;;
67363;SDS011;54250;45.572;38.086;2022-09-02T11:58:42;8.52;;;1.10;;
67363;SDS011;54250;45.572;38.086;2022-09-02T12:04:05;3.20;;;1.17;;
67363;SDS011;54250;45.572;38.086;2022-09-02T12:09:49;5.65;;;1.13;;
67363;SDS011;54250;45.572;38.086;2022-09-02T12:23:03;11.15;;;0.90;;
67363;SDS011;54250;45.572;38.086;2022-09-02T12:33:34;21.13;;;1.30;;
67363;SDS011;54250;45.572;38.086;2022-09-02T12:36:02;5.32;;;1.00;;
67363;SDS011;54250;45.572;38.086;2022-09-02T12:43:34;10.73;;;1.30;;
67363;SDS011;54250;45.572;38.086;2022-09-02T12:48:43;15.10;;;1.35;;
67363;SDS011;54250;45.572;38.086;2022-09-02T12:55:02;11.33;;;1.17;;
67363;SDS011;54250;45.572;38.086;2022-09-02T12:57:14;7.47;;;1.20;;
67363;SDS011;54250;45.572;38.086;2022-09-02T12:59:43;16.02;;;1.90;;
67363;SDS011;54250;45.572;38.086;2022-09-02T13:14:18;6.75;;;1.15;;
67363;SDS011;54250;45.572;38.086;2022-09-02T13:34:00;19.15;;;1.50;;
67363;SDS011;54250;45.572;38.086;2022-09-02T13:39:24;41.15;;;1.67;;
67363;SDS011;54250;45.572;38.086;2022-09-02T13:41:51;11.68;;;1.55;;
67363;SDS011;54250;45.572;38.086;2022-09-02T13:44:27;21.00;;;2.22;;
67363;SDS011;54250;45.572;38.086;2022-09-02T13:49:32;12.25;;;1.35;;
67363;SDS011;54250;45.572;38.086;2022-09-02T13:52:02;12.77;;;1.23;;
67363;SDS011;54250;45.572;38.086;2022-09-02T13:54:32;9.15;;;1.00;;
67363;SDS011;54250;45.572;38.086;2022-09-02T13:57:02;8.30;;;0.95;;
67363;SDS011;54250;45.572;38.086;2022-09-02T13:59:36;6.82;;;1.00;;
67363;SDS011;54250;45.572;38.086;2022-09-02T14:07:53;13.55;;;1.40;;
67363;SDS011;54250;45.572;38.086;2022-09-02T14:10:23;12.13;;;1.10;;
67363;SDS011;54250;45.572;38.086;2022-09-02T14:12:54;13.02;;;1.13;;
67363;SDS011;54250;45.572;38.086;2022-09-02T14:15:28;11.43;;;1.20;;
67363;SDS011;54250;45.572;38.086;2022-09-02T14:18:08;17.63;;;1.42;;
67363;SDS011;54250;45.572;38.086;2022-09-02T14:20:39;16.73;;;1.65;;
67363;SDS011;54250;45.572;38.086;2022-09-02T14:23:16;12.68;;;1.77;;
67363;SDS011;54250;45.572;38.086;2022-09-02T14:26:03;17.60;;;1.88;;
67363;SDS011;54250;45.572;38.086;2022-09-02T14:28:30;17.35;;;1.77;;
67363;SDS011;54250;45.572;38.086;2022-09-02T14:31:03;15.50;;;2.30;;
67363;SDS011;54250;45.572;38.086;2022-09-02T14:41:18;21.60;;;3.08;;
67363;SDS011;54250;45.572;38.086;2022-09-02T14:44:11;17.67;;;1.75;;
67363;SDS011;54250;45.572;38.086;2022-09-02T14:46:43;17.70;;;1.48;;
67363;SDS011;54250;45.572;38.086;2022-09-02T14:49:32;12.63;;;2.10;;
67363;SDS011;54250;45.572;38.086;2022-09-02T14:52:37;11.73;;;1.55;;
67363;SDS011;54250;45.572;38.086;2022-09-02T14:55:03;22.33;;;1.70;;
67363;SDS011;54250;45.572;38.086;2022-09-02T14:57:33;5.30;;;1.70;;
67363;SDS011;54250;45.572;38.086;2022-09-02T15:00:04;24.67;;;2.92;;
67363;SDS011;54250;45.572;38.086;2022-09-02T15:02:43;29.02;;;2.55;;
67363;SDS011;54250;45.572;38.086;2022-09-02T15:05:13;19.67;;;2.47;;
67363;SDS011;54250;45.572;38.086;2022-09-02T15:07:39;6.55;;;1.60;;
67363;SDS011;54250;45.572;38.086;2022-09-02T15:10:06;15.05;;;1.90;;
67363;SDS011;54250;45.572;38.086;2022-09-02T15:15:15;10.73;;;1.85;;
67363;SDS011;54250;45.572;38.086;2022-09-02T15:17:41;27.27;;;3.42;;
67363;SDS011;54250;45.572;38.086;2022-09-02T15:20:07;23.02;;;1.80;;
67363;SDS011;54250;45.572;38.086;2022-09-02T15:22:34;18.00;;;1.95;;
67363;SDS011;54250;45.572;38.086;2022-09-02T15:25:01;8.05;;;1.52;;
67363;SDS011;54250;45.572;38.086;2022-09-02T15:27:28;25.27;;;2.40;;
67363;SDS011;54250;45.572;38.086;2022-09-02T15:29:54;20.13;;;3.67;;
67363;SDS011;54250;45.572;38.086;2022-09-02T15:32:20;16.65;;;3.03;;
67363;SDS011;54250;45.572;38.086;2022-09-02T15:34:46;12.73;;;2.50;;
67363;SDS011;54250;45.572;38.086;2022-09-02T15:37:12;35.67;;;2.70;;
67363;SDS011;54250;45.572;38.086;2022-09-02T15:39:38;22.52;;;3.20;;
67363;SDS011;54250;45.572;38.086;2022-09-02T15:42:05;20.75;;;2.97;;
67363;SDS011;54250;45.572;38.086;2022-09-02T15:44:31;30.83;;;3.20;;
67363;SDS011;54250;45.572;38.086;2022-09-02T15:46:57;29.48;;;3.58;;
67363;SDS011;54250;45.572;38.086;2022-09-02T15:49:23;20.10;;;3.10;;
67363;SDS011;54250;45.572;38.086;2022-09-02T15:51:49;47.78;;;3.70;;
67363;SDS011;54250;45.572;38.086;2022-09-02T15:54:17;9.93;;;2.50;;
67363;SDS011;54250;45.572;38.086;2022-09-02T15:56:45;21.42;;;3.00;;
67363;SDS011;54250;45.572;38.086;2022-09-02T16:01:40;5.13;;;2.13;;
67363;SDS011;54250;45.572;38.086;2022-09-02T16:04:11;5.28;;;2.10;;
67363;SDS011;54250;45.572;38.086;2022-09-02T16:06:39;5.25;;;1.80;;
67363;SDS011;54250;45.572;38.086;2022-09-02T16:09:12;4.60;;;1.80;;
67363;SDS011;54250;45.572;38.086;2022-09-02T16:11:40;4.53;;;1.95;;
67363;SDS011;54250;45.572;38.086;2022-09-02T16:14:12;11.02;;;1.52;;
67363;SDS011;54250;45.572;38.086;2022-09-02T16:16:41;10.60;;;1.73;;
67363;SDS011;54250;45.572;38.086;2022-09-02T16:19:07;5.18;;;1.60;;
67363;SDS011;54250;45.572;38.086;2022-09-02T16:21:34;19.10;;;1.58;;
67363;SDS011;54250;45.572;38.086;2022-09-02T16:24:03;10.93;;;1.70;;
67363;SDS011;54250;45.572;38.086;2022-09-02T16:26:31;22.80;;;2.10;;
67363;SDS011;54250;45.572;38.086;2022-09-02T16:29:03;11.40;;;2.28;;
67363;SDS011;54250;45.572;38.086;2022-09-02T16:31:34;6.32;;;2.28;;
67363;SDS011;54250;45.572;38.086;2022-09-02T16:34:12;18.55;;;2.25;;
67363;SDS011;54250;45.572;38.086;2022-09-02T16:36:40;11.18;;;2.40;;
67363;SDS011;54250;45.572;38.086;2022-09-02T16:39:08;10.13;;;2.20;;
67363;SDS011;54250;45.572;38.086;2022-09-02T16:41:38;9.63;;;1.80;;
67363;SDS011;54250;45.572;38.086;2022-09-02T16:44:09;4.95;;;1.88;;
67363;SDS011;54250;45.572;38.086;2022-09-02T16:46:37;4.40;;;1.50;;
67363;SDS011;54250;45.572;38.086;2022-09-02T16:49:05;4.25;;;1.50;;
67363;SDS011;54250;45.572;38.086;2022-09-02T16:51:31;5.93;;;1.75;;
67363;SDS011;54250;45.572;38.086;2022-09-02T16:53:59;18.65;;;2.30;;
67363;SDS011;54250;45.572;38.086;2022-09-02T16:56:28;7.60;;;1.55;;
67363;SDS011;54250;45.572;38.086;2022-09-02T16:59:01;4.90;;;2.30;;
67363;SDS011;54250;45.572;38.086;2022-09-02T17:01:29;5.18;;;2.47;;
67363;SDS011;54250;45.572;38.086;2022-09-02T17:03:55;17.58;;;3.47;;
67363;SDS011;54250;45.572;38.086;2022-09-02T17:06:23;9.63;;;3.60;;
67363;SDS011;54250;45.572;38.086;2022-09-02T17:08:49;16.80;;;5.25;;
67363;SDS011;54250;45.572;38.086;2022-09-02T17:11:25;16.83;;;6.35;;
67363;SDS011;54250;45.572;38.086;2022-09-02T17:13:59;12.73;;;7.65;;
67363;SDS011;54250;45.572;38.086;2022-09-02T17:16:35;17.42;;;7.28;;
67363;SDS011;54250;45.572;38.086;2022-09-02T17:19:03;17.45;;;7.88;;
67363;SDS011;54250;45.572;38.086;2022-09-02T17:21:40;26.67;;;8.73;;
67363;SDS011;54250;45.572;38.086;2022-09-02T17:24:09;17.85;;;8.20;;
67363;SDS011;54250;45.572;38.086;2022-09-02T17:26:37;15.30;;;7.93;;
67363;SDS011;54250;45.572;38.086;2022-09-02T17:29:08;20.50;;;6.70;;
67363;SDS011;54250;45.572;38.086;2022-09-02T17:31:36;11.95;;;5.82;;
67363;SDS011;54250;45.572;38.086;2022-09-02T17:34:03;15.07;;;4.72;;
67363;SDS011;54250;45.572;38.086;2022-09-02T17:36:32;15.68;;;4.47;;
67363;SDS011;54250;45.572;38.086;2022-09-02T17:39:01;14.95;;;4.78;;